Time;durP1;ratioP1;P1;durP2;ratioP2;P2;SDS_P1;SDS_P2;PMS_P1;PMS_P2;Temp;Humidity;BMP_temperature;BMP_pressure;BME280_temperature;BME280_humidity;BME280_pressure;Samples;Min_cycle;Max_cycle;Signal;HPM_P1;HPM_P2
2022/06/10 00:01:26;;;;;;;14.25;8.70;;;;;;;18.45;97.20;100457.14;3662802;78;26410;-81
2022/06/10 00:06:27;;;;;;;10.23;7.87;;;;;;;18.33;96.46;100453.61;3562311;81;99289;-82
2022/06/10 00:11:28;;;;;;;10.27;8.00;;;;;;;18.25;96.72;100462.69;3639212;80;98828;-81
2022/06/10 00:16:29;;;;;;;10.97;8.03;;;;;;;18.18;96.59;100468.40;3623887;80;99261;-81
2022/06/10 00:21:30;;;;;;;12.33;8.00;;;;;;;18.14;97.24;100471.85;3679793;79;99039;-81
2022/06/10 00:26:32;;;;;;;12.37;7.97;;;;;;;18.10;96.37;100473.91;3651466;78;108476;-80
2022/06/10 00:31:33;;;;;;;12.37;7.40;;;;;;;18.05;96.40;100481.36;3683683;78;27431;-81
2022/06/10 00:36:34;;;;;;;12.77;8.40;;;;;;;17.98;95.96;100479.34;3703616;78;99005;-81
2022/06/10 00:41:35;;;;;;;11.13;7.33;;;;;;;17.93;96.72;100487.55;3683948;78;98835;-80
2022/06/10 00:46:37;;;;;;;13.97;7.87;;;;;;;17.93;96.76;100491.73;3674744;78;99340;-80
2022/06/10 00:51:54;;;;;;;12.00;7.23;;;;;;;17.91;96.97;100496.95;3692178;78;99301;-80
2022/06/10 00:57:19;;;;;;;9.60;6.65;;;;;;;17.93;97.95;100497.30;3582880;80;98952;-81
2022/06/10 01:02:25;;;;;;;9.83;7.28;;;;;;;17.91;97.53;100509.48;3671940;80;99261;-81
2022/06/10 01:07:35;;;;;;;11.78;8.90;;;;;;;17.89;98.20;100516.69;3670462;80;98770;-81
2022/06/10 01:12:57;;;;;;;14.70;10.43;;;;;;;17.88;97.96;100508.16;3669299;80;98851;-81
2022/06/10 01:18:32;;;;;;;11.78;8.93;;;;;;;17.84;98.56;100523.53;3662187;80;99199;-81
2022/06/10 01:24:06;;;;;;;13.15;9.70;;;;;;;17.83;98.28;100525.34;3699683;79;98906;-81
2022/06/10 01:29:35;;;;;;;11.53;8.70;;;;;;;17.84;99.13;100532.48;3694120;78;98947;-81
2022/06/10 01:34:57;;;;;;;12.60;9.55;;;;;;;17.82;99.17;100546.05;3690087;79;99000;-81
2022/06/10 01:40:25;;;;;;;13.20;10.00;;;;;;;17.82;99.73;100546.81;3692812;79;98991;-81
2022/06/10 01:45:31;;;;;;;15.23;9.78;;;;;;;17.77;99.60;100548.69;3712559;78;99519;-81
2022/06/10 01:50:44;;;;;;;13.05;9.50;;;;;;;17.77;99.81;100548.69;3710952;78;99271;-81
2022/06/10 01:55:50;;;;;;;14.63;9.23;;;;;;;17.78;99.89;100563.41;3714842;78;26250;-81
2022/06/10 02:00:57;;;;;;;13.35;9.00;;;;;;;17.76;99.85;100571.41;3713974;78;98718;-81
2022/06/10 02:06:02;;;;;;;10.95;7.40;;;;;;;17.74;99.91;100577.98;3714785;78;99271;-81
2022/06/10 02:11:12;;;;;;;10.10;7.50;;;;;;;17.70;99.47;100579.43;3683507;78;99113;-81
2022/06/10 02:16:18;;;;;;;9.98;7.10;;;;;;;17.67;100.00;100585.05;3722119;78;98948;-80
2022/06/10 02:21:24;;;;;;;11.00;7.50;;;;;;;17.67;99.94;100582.27;3711917;78;98871;-81
2022/06/10 02:26:28;;;;;;;8.08;5.58;;;;;;;17.60;99.16;100586.56;3713113;78;99048;-80
2022/06/10 02:31:34;;;;;;;9.80;4.87;;;;;;;17.51;98.46;100594.05;3702441;78;27022;-80
2022/06/10 02:36:41;;;;;;;;;;;;;;;17.45;98.55;100601.88;3687278;78;98588;-81
2022/06/10 02:42:12;;;;;;;6.70;4.55;;;;;;;17.41;98.07;100599.74;3718973;78;85369;-81
2022/06/10 02:47:18;;;;;;;7.23;4.80;;;;;;;17.34;99.04;100613.11;3713432;78;98802;-81
2022/06/10 02:52:23;;;;;;;7.72;4.37;;;;;;;17.29;98.43;100618.36;3688882;78;98794;-80
2022/06/10 03:02:57;;;;;;;6.75;4.35;;;;;;;17.16;97.05;100635.44;3667859;78;98760;-81
2022/06/10 03:08:25;;;;;;;7.75;4.15;;;;;;;17.00;96.44;100634.61;3654480;78;98861;-80
2022/06/10 03:13:39;;;;;;;7.40;4.80;;;;;;;16.91;95.95;100648.83;3679358;78;26497;-81
2022/06/10 03:18:49;;;;;;;5.95;3.72;;;;;;;16.92;98.37;100645.64;3661976;78;98768;-81
2022/06/10 03:24:10;;;;;;;8.43;4.25;;;;;;;16.85;97.36;100658.20;3680465;78;99105;-81
2022/06/10 03:29:29;;;;;;;8.25;4.47;;;;;;;16.78;97.18;100663.08;3634266;78;99328;-81
2022/06/10 03:34:41;;;;;;;8.43;5.10;;;;;;;16.72;97.46;100678.01;3676552;78;98895;-81
2022/06/10 03:39:43;;;;;;;7.25;4.40;;;;;;;16.67;97.46;100678.45;3684780;78;99166;-80
2022/06/10 03:44:50;;;;;;;8.55;4.47;;;;;;;16.63;97.53;100683.87;3670995;78;98926;-80
2022/06/10 03:49:59;;;;;;;9.98;3.80;;;;;;;16.60;97.56;100689.64;3673087;78;98349;-81
2022/06/10 03:55:00;;;;;;;7.85;3.77;;;;;;;16.62;97.40;100703.14;3710703;78;98476;-81
2022/06/10 04:00:04;;;;;;;7.37;3.58;;;;;;;16.60;98.15;100714.66;3725840;78;99110;-80
2022/06/10 04:05:08;;;;;;;11.50;3.90;;;;;;;16.56;97.37;100721.45;3713540;78;98815;-81
2022/06/10 04:10:12;;;;;;;6.90;4.12;;;;;;;16.53;97.36;100730.59;3694689;78;98977;-81
2022/06/10 04:15:14;;;;;;;9.10;4.60;;;;;;;16.53;97.92;100741.13;3705134;78;98883;-82
2022/06/10 04:20:30;;;;;;;13.32;4.67;;;;;;;16.51;97.75;100744.89;3707218;78;98894;-82
2022/06/10 04:25:33;;;;;;;8.57;4.23;;;;;;;16.50;98.33;100750.84;3728876;78;26594;-82
2022/06/10 04:30:39;;;;;;;6.20;3.98;;;;;;;16.46;97.82;100757.83;3706682;78;99157;-82
2022/06/10 04:35:43;;;;;;;9.73;4.62;;;;;;;16.46;98.30;100762.61;3731751;78;98658;-82
2022/06/10 04:40:46;;;;;;;7.75;4.30;;;;;;;16.50;98.82;100775.86;3697868;78;99268;-82
2022/06/10 04:45:52;;;;;;;8.25;5.12;;;;;;;16.53;98.52;100777.24;3719941;78;98806;-82
2022/06/10 04:50:53;;;;;;;8.80;5.03;;;;;;;16.56;98.14;100779.19;3704679;78;99107;-82
2022/06/10 04:55:54;;;;;;;9.17;4.77;;;;;;;16.61;98.26;100787.09;3707540;78;25779;-82
2022/06/10 05:00:56;;;;;;;7.80;4.37;;;;;;;16.71;98.18;100793.17;3708255;78;98639;-82
2022/06/10 05:05:57;;;;;;;7.90;5.03;;;;;;;16.84;97.91;100803.20;3714617;78;98647;-81
2022/06/10 05:10:58;;;;;;;10.67;5.97;;;;;;;16.98;98.28;100808.62;3707233;78;99129;-81
2022/06/10 05:15:59;;;;;;;10.73;7.10;;;;;;;17.10;97.85;100820.03;3717859;78;99352;-82
2022/06/10 05:21:00;;;;;;;13.10;7.67;;;;;;;17.20;97.25;100827.49;3710521;78;99324;-82
2022/06/10 05:26:02;;;;;;;10.70;7.53;;;;;;;17.30;96.90;100836.94;3733999;78;33226;-79
2022/06/10 05:31:03;;;;;;;10.07;7.20;;;;;;;17.36;96.54;100842.23;3707774;78;98987;-79
2022/06/10 05:36:05;;;;;;;9.63;6.80;;;;;;;17.38;96.01;100846.22;3717793;78;99166;-79
2022/06/10 05:46:26;;;;;;;11.50;7.50;;;;;;;17.44;95.17;100848.73;3719758;78;98996;-87
2022/06/10 05:51:27;;;;;;;11.77;8.03;;;;;;;17.47;95.03;100861.84;3724175;78;99440;-87
2022/06/10 05:56:28;;;;;;;10.13;7.07;;;;;;;17.64;95.18;100872.00;3713824;78;99021;-89
2022/06/10 06:01:29;;;;;;;12.80;7.67;;;;;;;17.79;94.47;100883.77;3714552;78;33770;-88
2022/06/10 06:06:30;;;;;;;11.80;7.37;;;;;;;17.95;94.69;100895.92;3711373;78;98795;-88
2022/06/10 06:11:31;;;;;;;9.73;6.83;;;;;;;18.23;94.41;100885.03;3717669;78;99645;-88
2022/06/10 06:16:33;;;;;;;10.17;6.57;;;;;;;18.61;94.48;100881.75;3714194;78;98804;-89
2022/06/10 06:21:34;;;;;;;9.70;6.63;;;;;;;19.06;93.54;100886.42;3723423;78;99336;-88
2022/06/10 06:26:35;;;;;;;10.80;5.93;;;;;;;19.53;92.52;100890.84;3693061;78;98948;-88
2022/06/10 06:31:37;;;;;;;11.47;6.40;;;;;;;19.98;91.67;100890.56;3706599;78;26201;-89
2022/06/10 06:36:45;;;;;;;7.40;5.10;;;;;;;20.35;89.28;100898.62;3680001;78;99039;-88
2022/06/10 06:41:47;;;;;;;8.43;4.83;;;;;;;20.68;88.06;100895.48;3717080;78;99156;-90
2022/06/10 06:46:49;;;;;;;7.47;3.62;;;;;;;21.06;86.45;100897.22;3706645;78;99281;-88
2022/06/10 06:51:51;;;;;;;8.28;4.05;;;;;;;21.32;84.86;100906.77;3733846;78;99226;-89
2022/06/10 06:56:52;;;;;;;9.30;4.60;;;;;;;21.78;84.75;100916.17;3674130;78;99293;-88
2022/06/10 07:01:53;;;;;;;7.57;3.77;;;;;;;22.17;82.75;100924.92;3718998;78;25940;-88
2022/06/10 07:06:54;;;;;;;8.58;4.22;;;;;;;22.56;81.54;100940.80;3692884;78;98844;-89
2022/06/10 07:11:56;;;;;;;8.53;4.20;;;;;;;22.76;80.12;100947.62;3712018;78;98615;-88
2022/06/10 07:16:57;;;;;;;6.80;3.42;;;;;;;23.02;78.89;100948.61;3704373;78;98776;-87
2022/06/10 07:21:58;;;;;;;7.67;3.85;;;;;;;23.38;77.52;100954.67;3720519;78;98786;-88
2022/06/10 07:27:04;;;;;;;5.62;3.45;;;;;;;23.73;77.07;100947.88;3694990;78;99141;-88
2022/06/10 07:32:03;;;;;;;6.10;3.70;;;;;;;24.12;75.90;100943.09;3592354;80;25871;-88
2022/06/10 07:37:04;;;;;;;5.05;2.90;;;;;;;24.55;75.10;100944.49;3639685;79;98755;-87
2022/06/10 07:42:06;;;;;;;5.62;2.70;;;;;;;24.72;71.39;100949.30;3675895;78;99077;-87
2022/06/10 07:47:12;;;;;;;8.05;2.90;;;;;;;24.74;71.61;100958.08;3678365;78;99055;-87
2022/06/10 07:52:13;;;;;;;4.28;2.12;;;;;;;24.98;70.51;100953.50;3694836;78;99292;-88
2022/06/10 07:57:14;;;;;;;4.42;2.25;;;;;;;25.32;70.17;100951.94;3608673;80;98864;-89
2022/06/10 08:02:15;;;;;;;3.08;1.80;;;;;;;25.64;67.53;100951.39;3608535;80;99019;-88
2022/06/10 08:07:16;;;;;;;4.40;2.12;;;;;;;25.92;66.86;100953.82;3618343;80;98872;-88
2022/06/10 08:12:17;;;;;;;6.12;2.33;;;;;;;26.42;66.10;100953.16;3627309;80;98787;-88
2022/06/10 08:17:18;;;;;;;6.42;2.83;;;;;;;26.96;64.97;100960.74;3529164;82;98874;-88
2022/06/10 08:22:35;;;;;;;4.97;2.47;;;;;;;27.39;64.49;100965.30;3576786;81;99195;-87
2022/06/10 08:27:37;;;;;;;2.75;1.85;;;;;;;27.90;61.84;100955.27;3598302;81;99516;-87
2022/06/10 08:32:38;;;;;;;3.87;2.10;;;;;;;28.42;61.34;100955.31;3600923;80;98873;-87
2022/06/10 08:37:39;;;;;;;4.40;1.80;;;;;;;29.14;59.35;100960.81;3535085;82;98836;-88
2022/06/10 08:42:42;;;;;;;5.75;2.27;;;;;;;29.79;58.03;100971.60;3605050;80;98779;-87
2022/06/10 08:47:55;;;;;;;2.70;1.77;;;;;;;30.18;56.74;100967.24;3532336;82;98886;-87
2022/06/10 08:53:14;;;;;;;4.00;1.90;;;;;;;30.37;54.63;100971.31;3620225;80;98945;-87
2022/06/10 08:58:28;;;;;;;3.62;1.52;;;;;;;30.53;53.20;100972.92;3634084;79;98772;-87
2022/06/10 09:03:52;;;;;;;3.05;1.70;;;;;;;30.64;53.52;100975.09;3654039;79;99198;-88
2022/06/10 09:08:56;;;;;;;2.42;1.50;;;;;;;30.84;52.19;100982.16;3647360;79;99279;-87
2022/06/10 09:14:21;;;;;;;5.35;1.57;;;;;;;31.56;51.08;100995.69;3656762;80;25901;-86
2022/06/10 09:19:34;;;;;;;;;;;;;;;31.91;49.20;100990.46;3638720;80;98898;-87
2022/06/10 09:24:46;;;;;;;1.85;1.20;;;;;;;32.14;46.17;100994.95;3647236;80;84276;-87
2022/06/10 09:29:48;;;;;;;4.28;1.22;;;;;;;32.31;48.53;101003.61;3655650;80;98717;-89
2022/06/10 09:35:06;;;;;;;3.60;1.45;;;;;;;32.32;45.99;100998.03;3659836;79;99316;-86
2022/06/10 09:46:01;;;;;;;2.25;1.30;;;;;;;32.78;45.96;101012.66;3663442;80;98779;-86
2022/06/10 09:51:26;;;;;;;2.92;1.15;;;;;;;33.15;45.25;101009.73;3635075;80;99080;-87
2022/06/10 09:57:04;;;;;;;3.40;1.25;;;;;;;33.17;44.10;101009.98;3646592;80;98784;-85
2022/06/10 10:02:17;;;;;;;2.62;1.37;;;;;;;33.34;40.45;101010.01;3658825;80;25870;-87
2022/06/10 10:07:45;;;;;;;4.00;1.50;;;;;;;33.34;41.70;101017.14;3654931;80;98911;-86
2022/06/10 10:13:24;;;;;;;5.12;1.47;;;;;;;33.79;41.14;101016.55;3659949;80;99088;-87
2022/06/10 10:18:44;;;;;;;3.50;1.70;;;;;;;33.94;40.44;101016.27;3653892;80;98963;-86
2022/06/10 10:23:52;;;;;;;6.17;1.52;;;;;;;33.81;39.54;101001.11;3627436;80;99314;-86
2022/06/10 10:29:15;;;;;;;3.40;1.87;;;;;;;34.39;41.05;101011.27;3658225;80;98920;-87
2022/06/10 10:34:21;;;;;;;3.27;1.70;;;;;;;34.42;38.22;101003.08;3661725;80;99236;-87
2022/06/10 10:39:36;;;;;;;2.87;1.80;;;;;;;35.09;39.86;101005.61;3651377;79;99102;-86
2022/06/10 10:44:48;;;;;;;3.72;1.92;;;;;;;35.33;38.60;101009.21;3658668;79;99155;-85
2022/06/10 10:50:00;;;;;;;5.92;1.90;;;;;;;35.44;37.89;100999.08;3646729;80;98545;-87
2022/06/10 10:55:25;;;;;;;4.47;2.10;;;;;;;35.59;37.07;101008.05;3656720;78;98962;-85
2022/06/10 11:00:38;;;;;;;2.98;1.50;;;;;;;35.91;37.37;100997.56;3635389;79;98587;-85
2022/06/10 11:05:48;;;;;;;2.65;1.55;;;;;;;35.99;36.14;101008.52;3600043;80;99180;-86
2022/06/10 11:11:09;;;;;;;3.95;1.40;;;;;;;36.00;35.45;101000.83;3664108;78;98821;-86
2022/06/10 11:16:31;;;;;;;2.47;1.20;;;;;;;35.78;35.39;101007.47;3620129;79;99072;-86
2022/06/10 11:21:54;;;;;;;3.90;1.30;;;;;;;36.09;35.30;101006.84;3630990;79;98840;-86
2022/06/10 11:27:02;;;;;;;3.33;1.30;;;;;;;36.34;35.38;101014.87;3632002;79;98640;-86
2022/06/10 11:32:06;;;;;;;2.62;1.10;;;;;;;36.38;34.32;101015.98;3602682;81;26490;-84
2022/06/10 11:37:40;;;;;;;4.10;1.42;;;;;;;36.26;34.01;101015.38;3594551;81;99120;-85
2022/06/10 11:43:14;;;;;;;2.20;1.50;;;;;;;36.14;34.22;101011.73;3672584;78;98272;-86
2022/06/10 11:48:26;;;;;;;2.60;1.30;;;;;;;36.16;33.39;101014.82;3653659;79;99162;-85
2022/06/10 11:54:03;;;;;;;3.33;1.30;;;;;;;36.22;33.67;101009.82;3602407;80;99155;-83
2022/06/10 12:04:40;;;;;;;2.67;1.02;;;;;;;35.20;30.88;101016.20;3599367;80;99284;-84
2022/06/10 12:09:48;;;;;;;1.87;1.02;;;;;;;34.50;32.02;101011.20;3565881;80;99208;-85
2022/06/10 12:14:55;;;;;;;3.60;1.25;;;;;;;34.56;32.03;101005.47;3667620;78;99090;-85
2022/06/10 12:20:10;;;;;;;2.47;0.90;;;;;;;34.71;32.99;101011.62;3672019;78;98391;-85
2022/06/10 12:25:20;;;;;;;1.35;0.80;;;;;;;34.92;33.85;101016.42;3637880;78;99105;-85
2022/06/10 12:30:46;;;;;;;2.02;1.12;;;;;;;34.65;32.49;101005.92;3682815;78;98676;-84
2022/06/10 12:35:50;;;;;;;1.15;0.80;;;;;;;34.59;33.22;101008.04;3667085;78;99166;-84
2022/06/10 12:40:58;;;;;;;2.47;0.83;;;;;;;34.69;33.76;101010.71;3658248;78;98792;-84
2022/06/10 12:46:14;;;;;;;1.80;1.17;;;;;;;34.69;32.96;101003.56;3683030;78;98741;-85
2022/06/10 12:51:43;;;;;;;10.18;1.72;;;;;;;34.92;34.22;101000.69;3663624;78;98820;-87
2022/06/10 12:56:44;;;;;;;4.95;1.10;;;;;;;34.80;31.06;101007.02;3668752;78;99076;-84
2022/06/10 13:01:46;;;;;;;2.62;1.35;;;;;;;33.94;32.88;101004.84;3688656;78;26303;-85
2022/06/10 13:07:04;;;;;;;2.12;1.02;;;;;;;33.95;32.43;101005.72;3687838;78;98685;-84
2022/06/10 13:12:13;;;;;;;3.65;1.00;;;;;;;33.83;33.46;101007.06;3670580;78;98915;-84
2022/06/10 13:17:29;;;;;;;2.40;1.37;;;;;;;33.85;33.10;101005.91;3685250;78;99182;-84
2022/06/10 13:22:40;;;;;;;1.65;0.88;;;;;;;33.66;32.64;100992.03;3678067;78;98915;-87
2022/06/10 13:27:47;;;;;;;4.22;1.02;;;;;;;33.42;31.71;100996.12;3671075;78;98670;-84
2022/06/10 13:33:11;;;;;;;1.22;1.10;;;;;;;33.32;32.67;100991.19;3668876;78;99142;-83
2022/06/10 13:38:27;;;;;;;;;;;;;;;32.39;32.08;101001.17;3681726;78;98683;-85
2022/06/10 13:43:33;;;;;;;1.90;1.10;;;;;;;32.61;36.79;100995.52;3697051;78;84856;-84
2022/06/10 13:48:34;;;;;;;2.02;1.00;;;;;;;32.81;34.31;100996.73;3698826;78;98890;-83
2022/06/10 13:53:53;;;;;;;1.85;1.02;;;;;;;32.64;33.61;100990.86;3702184;78;99015;-85
2022/06/10 13:58:53;;;;;;;3.00;1.55;;;;;;;32.48;33.79;100999.49;3687898;78;98844;-84
2022/06/10 14:04:11;;;;;;;4.17;1.17;;;;;;;32.04;33.46;100983.65;3687883;78;99126;-84
2022/06/10 14:09:30;;;;;;;1.92;0.80;;;;;;;32.07;32.83;100986.12;3696105;78;98831;-85
2022/06/10 14:14:32;;;;;;;1.95;0.72;;;;;;;31.40;34.07;100987.82;3691897;78;26289;-84
2022/06/10 14:19:47;;;;;;;1.87;0.93;;;;;;;31.23;34.39;100980.44;3652179;78;99219;-84
2022/06/10 14:25:15;;;;;;;;;;;;;;;30.91;34.48;100983.91;3679265;78;98730;-82
2022/06/10 14:30:39;;;;;;;1.82;1.30;;;;;;;30.78;35.30;100987.02;3686383;78;84919;-85
2022/06/10 14:35:45;;;;;;;1.02;0.90;;;;;;;30.98;36.88;100982.66;3691065;78;98805;-77
2022/06/10 14:41:03;;;;;;;2.27;0.93;;;;;;;31.18;36.85;100976.25;3682535;78;99105;-85
2022/06/10 14:46:12;;;;;;;2.70;1.00;;;;;;;31.02;37.81;100976.11;3688714;78;98836;-84
2022/06/10 14:51:24;;;;;;;3.17;1.20;;;;;;;30.92;36.45;100981.83;3677230;78;98884;-84
2022/06/10 14:56:40;;;;;;;1.42;0.93;;;;;;;30.95;37.83;100983.02;3686030;78;98587;-82
2022/06/10 15:01:43;;;;;;;2.20;1.05;;;;;;;30.83;37.74;100977.11;3691577;78;98364;-84
2022/06/10 15:06:49;;;;;;;3.02;0.95;;;;;;;30.75;37.43;100970.33;3673052;78;98635;-84
2022/06/10 15:11:51;;;;;;;1.62;0.70;;;;;;;30.55;35.31;100967.51;3694686;78;98814;-84
2022/06/10 15:16:52;;;;;;;3.12;1.17;;;;;;;30.02;35.71;100974.89;3684840;78;99084;-85
2022/06/10 15:21:53;;;;;;;3.05;1.45;;;;;;;29.75;34.75;100969.63;3694201;78;99308;-84
2022/06/10 15:26:56;;;;;;;3.33;0.82;;;;;;;29.44;37.14;100970.83;3666909;78;98770;-85
2022/06/10 15:31:58;;;;;;;3.17;1.02;;;;;;;29.36;37.57;100971.88;3701559;78;26354;-85
2022/06/10 15:42:18;;;;;;;2.85;0.95;;;;;;;28.84;36.91;100968.58;3675415;78;98750;-84
2022/06/10 15:47:20;;;;;;;1.70;0.85;;;;;;;28.48;37.67;100963.28;3676693;78;99116;-84
2022/06/10 15:52:36;;;;;;;3.02;0.90;;;;;;;28.19;37.46;100958.97;3699692;78;98815;-85
2022/06/10 15:57:45;;;;;;;1.70;0.80;;;;;;;27.81;36.96;100957.54;3695537;78;98876;-86
2022/06/10 16:02:45;;;;;;;3.25;1.20;;;;;;;27.43;37.73;100962.30;3699687;78;26459;-84
2022/06/10 16:07:47;;;;;;;2.93;0.77;;;;;;;27.04;38.40;100961.37;3665447;78;98789;-84
2022/06/10 16:13:02;;;;;;;1.82;0.85;;;;;;;26.79;38.48;100967.41;3704246;78;98625;-85
2022/06/10 16:18:08;;;;;;;3.62;1.07;;;;;;;26.37;38.74;100965.09;3673910;78;99258;-84
2022/06/10 16:23:17;;;;;;;1.85;0.85;;;;;;;26.09;39.17;100964.16;3699105;78;99565;-84
2022/06/10 16:28:22;;;;;;;2.45;0.90;;;;;;;25.73;39.19;100955.65;3689141;78;98988;-85
2022/06/10 16:33:27;;;;;;;1.70;1.07;;;;;;;25.47;39.82;100960.77;3679763;78;98884;-84
2022/06/10 16:38:29;;;;;;;1.67;1.00;;;;;;;25.15;39.58;100958.44;3692781;78;98827;-84
2022/06/10 16:43:36;;;;;;;2.58;1.20;;;;;;;24.90;39.85;100961.44;3690167;78;98689;-84
2022/06/10 16:48:36;;;;;;;3.90;1.20;;;;;;;24.57;40.53;100958.11;3682569;78;99108;-84
2022/06/10 16:53:38;;;;;;;2.20;1.30;;;;;;;24.37;41.09;100960.47;3685734;78;98991;-84
2022/06/10 16:58:39;;;;;;;2.05;1.00;;;;;;;24.16;41.31;100955.61;3686295;78;98870;-85
2022/06/10 17:03:40;;;;;;;2.95;1.00;;;;;;;23.91;41.65;100956.50;3673538;78;99210;-85
2022/06/10 17:08:41;;;;;;;2.12;1.30;;;;;;;23.75;41.90;100960.84;3666192;78;98875;-84
2022/06/10 17:13:43;;;;;;;3.30;1.30;;;;;;;23.54;42.27;100979.83;3684789;78;98539;-84
2022/06/10 17:18:44;;;;;;;2.47;1.42;;;;;;;23.34;42.80;100967.27;3678021;78;99280;-84
2022/06/10 17:23:45;;;;;;;1.75;1.17;;;;;;;23.19;42.60;100973.97;3683876;78;98872;-84
2022/06/10 17:28:51;;;;;;;1.55;1.20;;;;;;;23.02;42.89;100980.10;3663523;78;99156;-84
2022/06/10 17:33:53;;;;;;;1.98;0.90;;;;;;;22.90;43.45;100982.28;3674678;78;99204;-85
2022/06/10 17:38:59;;;;;;;1.72;1.00;;;;;;;22.73;43.78;100985.02;3675419;78;99067;-83
2022/06/10 17:44:05;;;;;;;1.77;1.07;;;;;;;22.61;44.05;100989.98;3679917;78;26588;-84
2022/06/10 17:49:21;;;;;;;3.27;1.10;;;;;;;22.44;44.32;101000.47;3683227;78;99115;-83
2022/06/10 17:54:22;;;;;;;2.50;1.12;;;;;;;22.32;44.72;100995.58;3690878;78;98587;-85
2022/06/10 17:59:37;;;;;;;2.20;1.10;;;;;;;22.19;45.64;101000.97;3663357;78;98829;-85
2022/06/10 18:04:38;;;;;;;4.60;1.67;;;;;;;22.08;45.17;100999.06;3664962;78;98783;-83
2022/06/10 18:09:39;;;;;;;2.07;1.00;;;;;;;21.95;45.98;101006.00;3631374;79;98982;-83
2022/06/10 18:14:55;;;;;;;3.23;1.47;;;;;;;21.85;47.08;101011.27;3678681;78;25813;-85
2022/06/10 18:19:56;;;;;;;5.92;1.37;;;;;;;21.71;47.51;101019.25;3621992;78;98819;-83
2022/06/10 18:24:57;;;;;;;3.13;1.10;;;;;;;21.57;49.26;101023.78;3675113;78;99033;-83
2022/06/10 18:30:06;;;;;;;3.30;1.20;;;;;;;21.45;48.82;101023.85;3677946;78;98905;-82
2022/06/10 18:35:15;;;;;;;3.67;1.30;;;;;;;21.32;48.42;101029.17;3675585;79;99091;-84
2022/06/10 18:40:23;;;;;;;2.37;1.20;;;;;;;21.17;49.73;101037.71;3679287;78;98823;-84
2022/06/10 18:45:27;;;;;;;3.08;1.10;;;;;;;21.04;50.72;101048.02;3673777;78;99086;-84
2022/06/10 18:50:32;;;;;;;3.12;1.40;;;;;;;20.95;52.10;101048.60;3685880;78;98635;-86
2022/06/10 18:55:35;;;;;;;5.28;1.35;;;;;;;20.80;52.48;101051.48;3689019;78;99066;-85
2022/06/10 19:00:40;;;;;;;2.58;1.27;;;;;;;20.70;53.44;101046.12;3656973;78;98778;-86
2022/06/10 19:05:41;;;;;;;5.05;1.95;;;;;;;20.57;54.06;101059.95;3677038;79;99352;-85
2022/06/10 19:10:46;;;;;;;9.25;2.25;;;;;;;20.45;54.84;101061.19;3661796;78;99203;-85
2022/06/10 19:15:54;;;;;;;8.33;3.17;;;;;;;20.32;56.46;101062.42;3669255;78;99186;-86
2022/06/10 19:20:56;;;;;;;9.58;3.33;;;;;;;20.18;57.75;101065.48;3670072;78;99012;-85
2022/06/10 19:26:05;;;;;;;5.92;2.90;;;;;;;20.02;57.23;101070.13;3679780;78;98751;-86
2022/06/10 19:31:17;;;;;;;6.67;3.00;;;;;;;19.89;59.56;101072.73;3680493;78;98545;-87
2022/06/10 19:36:38;;;;;;;3.87;2.40;;;;;;;19.75;60.39;101075.77;3680083;78;99127;-87
2022/06/10 19:41:39;;;;;;;3.60;2.20;;;;;;;19.62;61.84;101076.78;3695806;78;98880;-86
2022/06/10 19:46:42;;;;;;;4.50;2.17;;;;;;;19.52;63.39;101084.09;3690194;78;102205;-86
2022/06/10 19:51:43;;;;;;;6.50;2.47;;;;;;;19.43;64.20;101079.66;3687591;78;99491;-87
2022/06/10 19:56:45;;;;;;;4.73;2.53;;;;;;;19.33;65.27;101092.36;3681999;78;99035;-87
2022/06/10 20:01:54;;;;;;;5.67;2.70;;;;;;;19.20;66.06;101101.89;3698917;78;99069;-86
2022/06/10 20:07:06;;;;;;;5.90;2.27;;;;;;;19.09;66.36;101104.63;3675210;78;98936;-86
2022/06/10 20:12:09;;;;;;;7.58;2.15;;;;;;;18.73;66.15;101104.85;3716480;78;98786;-87
2022/06/10 20:17:21;;;;;;;7.78;2.25;;;;;;;18.73;66.15;101104.85;3690910;78;98877;-86
2022/06/10 20:22:28;;;;;;;4.83;1.87;;;;;;;18.54;66.48;101105.48;3682978;78;99090;-86
2022/06/10 20:27:29;;;;;;;4.27;2.00;;;;;;;18.39;66.43;101119.36;3672656;78;99141;-87
2022/06/10 20:32:32;;;;;;;9.37;2.33;;;;;;;18.20;67.14;101113.73;3688291;78;25895;-87
2022/06/10 20:37:33;;;;;;;7.22;2.45;;;;;;;18.11;69.05;101127.95;3690582;78;99011;-87
2022/06/10 20:42:34;;;;;;;9.53;3.63;;;;;;;18.07;70.82;101121.61;3679834;78;98822;-88
2022/06/10 20:47:38;;;;;;;4.83;2.40;;;;;;;17.98;71.54;101119.30;3687060;78;98901;-85
2022/06/10 20:52:41;;;;;;;6.70;2.30;;;;;;;17.93;73.10;101119.73;3669292;78;98049;-84
2022/06/10 20:57:42;;;;;;;5.40;2.60;;;;;;;17.84;72.90;101121.41;3680971;78;99064;-85
2022/06/10 21:02:43;;;;;;;7.30;2.60;;;;;;;17.72;72.98;101133.80;3688133;78;26160;-85
2022/06/10 21:07:49;;;;;;;5.63;3.07;;;;;;;17.63;74.43;101124.33;3689418;78;99110;-86
2022/06/10 21:12:53;;;;;;;6.35;2.90;;;;;;;17.57;75.64;101125.97;3630375;79;98680;-86
2022/06/10 21:18:02;;;;;;;6.65;2.90;;;;;;;17.51;76.08;101133.97;3676325;78;99334;-85
2022/06/10 21:23:05;;;;;;;4.67;2.40;;;;;;;17.45;76.89;101131.39;3595302;80;98810;-86
2022/06/10 21:28:11;;;;;;;5.87;2.50;;;;;;;17.38;77.36;101132.83;3689053;78;98874;-86
2022/06/10 21:33:23;;;;;;;5.08;2.22;;;;;;;17.30;77.53;101129.88;3702280;78;98601;-85
2022/06/10 21:38:25;;;;;;;6.00;2.50;;;;;;;17.23;77.74;101129.89;3690788;78;98756;-85
2022/06/10 21:48:46;;;;;;;5.12;2.60;;;;;;;17.07;78.10;101135.13;3688572;78;98873;-84
2022/06/10 21:53:57;;;;;;;4.67;2.25;;;;;;;16.99;78.83;101134.16;3709579;78;99162;-85
2022/06/10 21:59:03;;;;;;;4.37;2.27;;;;;;;16.92;78.17;101134.20;3662515;79;98984;-84
2022/06/10 22:04:35;;;;;;;7.53;2.30;;;;;;;16.82;77.47;101132.24;3606110;81;98808;-85
2022/06/10 22:09:39;;;;;;;3.45;2.00;;;;;;;16.70;76.50;101131.29;3661830;79;98851;-86
2022/06/10 22:14:40;;;;;;;5.87;2.20;;;;;;;16.56;76.26;101120.22;3671291;79;26675;-85
2022/06/10 22:19:46;;;;;;;4.70;1.93;;;;;;;16.49;74.31;101132.14;3664959;79;98905;-84
2022/06/10 22:24:50;;;;;;;;;;;;;;;16.38;72.81;101134.11;3657500;79;98634;-84
2022/06/10 22:29:53;;;;;;;2.95;1.95;;;;;;;16.31;72.91;101127.77;3673151;79;84835;-85
2022/06/10 22:34:58;;;;;;;4.28;1.77;;;;;;;16.24;72.21;101123.61;3660246;78;98798;-85
2022/06/10 22:39:59;;;;;;;4.05;1.65;;;;;;;16.18;72.21;101123.20;3644891;79;98829;-85
2022/06/10 22:45:00;;;;;;;6.28;2.45;;;;;;;16.15;71.90;101116.27;3656705;79;98851;-84
2022/06/10 22:50:04;;;;;;;4.77;1.93;;;;;;;16.12;72.67;101114.27;3648740;79;98948;-85
2022/06/10 22:55:11;;;;;;;3.55;1.60;;;;;;;16.09;71.75;101108.14;3660425;78;98621;-85
2022/06/10 23:00:17;;;;;;;3.72;1.90;;;;;;;16.08;73.08;101110.11;3661869;79;98969;-85
2022/06/10 23:10:47;;;;;;;4.55;1.40;;;;;;;16.01;73.61;101104.57;3692115;78;99669;-85
2022/06/10 23:15:52;;;;;;;3.87;1.52;;;;;;;15.97;72.83;101109.33;3694994;78;98857;-84
2022/06/10 23:20:55;;;;;;;7.00;2.67;;;;;;;15.93;73.20;101103.58;3661847;78;98485;-84
2022/06/10 23:25:56;;;;;;;3.67;1.57;;;;;;;15.90;73.11;101103.78;3678382;78;98586;-84
2022/06/10 23:31:05;;;;;;;3.27;1.50;;;;;;;15.89;73.98;101099.42;3701677;78;98746;-85
2022/06/10 23:36:16;;;;;;;4.10;2.15;;;;;;;15.87;73.77;101099.01;3658913;78;98851;-84
2022/06/10 23:41:21;;;;;;;3.37;1.55;;;;;;;15.84;73.42;101089.30;3678350;79;99237;-85
2022/06/10 23:51:52;;;;;;;5.42;1.60;;;;;;;15.81;74.61;101096.42;3700602;78;98784;-84
2022/06/10 23:56:55;;;;;;;3.40;1.47;;;;;;;15.82;76.56;101095.27;3672396;78;98817;-84
